createdAt,value
2018-12-01T00:02:17.444Z,1.66
2018-12-01T00:04:45.674Z,1.81
2018-12-01T00:07:13.898Z,1.80
2018-12-01T00:09:42.612Z,1.89
2018-12-01T00:12:10.932Z,1.84
2018-12-01T00:14:39.351Z,1.91
2018-12-01T00:17:07.772Z,1.87
2018-12-01T00:19:36.136Z,1.83
2018-12-01T00:22:04.457Z,1.86
2018-12-01T00:24:32.570Z,1.82
2018-12-01T00:27:00.796Z,1.91
2018-12-01T00:29:29.152Z,1.95
2018-12-01T00:31:58.042Z,1.83
2018-12-01T00:34:26.158Z,1.86
2018-12-01T00:36:54.319Z,1.82
2018-12-01T00:39:22.625Z,1.82
2018-12-01T00:41:50.745Z,1.90
2018-12-01T00:44:19.042Z,1.94
2018-12-01T00:46:47.360Z,1.96
2018-12-01T00:49:15.613Z,1.94
2018-12-01T00:51:44.367Z,1.93
2018-12-01T00:54:12.574Z,1.86
2018-12-01T00:56:40.755Z,1.95
2018-12-01T00:59:09.074Z,2.03
2018-12-01T01:01:37.194Z,2.03
2018-12-01T01:04:05.554Z,1.96
2018-12-01T01:06:33.684Z,1.96
2018-12-01T01:09:02.057Z,1.81
2018-12-01T01:11:30.388Z,1.88
2018-12-01T01:13:58.609Z,1.88
2018-12-01T01:16:26.784Z,1.83
2018-12-01T01:18:54.955Z,1.83
2018-12-01T01:21:23.063Z,1.79
2018-12-01T01:23:51.278Z,1.93
2018-12-01T01:26:19.550Z,1.93
2018-12-01T01:28:47.685Z,1.86
2018-12-01T01:31:15.935Z,1.99
2018-12-01T01:33:44.173Z,1.96
2018-12-01T01:36:12.400Z,1.89
2018-12-01T01:38:40.503Z,1.89
2018-12-01T01:41:08.931Z,1.99
2018-12-01T01:43:37.534Z,1.93
2018-12-01T01:46:05.991Z,1.89
2018-12-01T01:48:34.120Z,1.91
2018-12-01T01:51:02.351Z,1.94
2018-12-01T01:53:30.652Z,1.94
2018-12-01T01:55:59.008Z,1.91
2018-12-01T01:58:27.257Z,1.93
2018-12-01T02:00:55.444Z,1.87
2018-12-01T02:03:23.594Z,2.03
2018-12-01T02:05:58.356Z,2.01
2018-12-01T02:08:26.698Z,1.96
2018-12-01T02:10:55.023Z,2.10
2018-12-01T02:13:23.302Z,2.01
2018-12-01T02:15:51.508Z,2.03
2018-12-01T02:18:19.656Z,2.10
2018-12-01T02:20:47.853Z,2.09
2018-12-01T02:23:16.016Z,2.00
2018-12-01T02:25:44.216Z,2.08
2018-12-01T02:28:12.360Z,1.94
2018-12-01T02:30:40.582Z,2.03
2018-12-01T02:33:08.771Z,2.08
2018-12-01T02:35:36.934Z,2.05
2018-12-01T02:38:05.102Z,1.93
2018-12-01T02:40:33.427Z,1.97
2018-12-01T02:43:01.718Z,1.98
2018-12-01T02:45:41.509Z,1.97
2018-12-01T02:48:09.894Z,1.97
2018-12-01T02:50:38.228Z,1.91
2018-12-01T02:53:06.732Z,1.86
2018-12-01T02:55:35.077Z,1.96
2018-12-01T02:58:03.229Z,1.89
2018-12-01T03:00:31.369Z,1.96
2018-12-01T03:02:59.749Z,2.08
2018-12-01T03:05:27.963Z,1.97
2018-12-01T03:07:56.146Z,1.90
2018-12-01T03:10:24.342Z,2.00
2018-12-01T03:12:53.608Z,2.00
2018-12-01T03:15:21.903Z,2.01
2018-12-01T03:17:51.056Z,1.95
2018-12-01T03:20:19.406Z,2.01
2018-12-01T03:22:47.558Z,2.12
2018-12-01T03:25:21.314Z,2.00
2018-12-01T03:27:50.408Z,2.03
2018-12-01T03:30:19.638Z,2.04
2018-12-01T03:32:48.402Z,2.04
2018-12-01T03:35:16.834Z,1.98
2018-12-01T03:37:47.181Z,2.05
2018-12-01T03:40:15.886Z,1.98
2018-12-01T03:42:44.122Z,2.05
2018-12-01T03:45:13.556Z,2.07
2018-12-01T03:47:41.781Z,2.13
2018-12-01T03:50:11.238Z,2.07
2018-12-01T03:52:39.399Z,2.08
2018-12-01T03:55:19.109Z,2.04
2018-12-01T03:57:47.328Z,2.09
2018-12-01T04:00:15.495Z,2.11
2018-12-01T04:02:43.613Z,2.07
2018-12-01T04:05:11.769Z,2.10
2018-12-01T04:07:39.939Z,2.19
2018-12-01T04:10:08.083Z,2.10
2018-12-01T04:12:36.277Z,2.17
2018-12-01T04:15:04.443Z,2.01
2018-12-01T04:17:32.597Z,2.06
2018-12-01T04:20:00.693Z,2.09
2018-12-01T04:22:28.924Z,2.14
2018-12-01T04:24:57.183Z,1.97
2018-12-01T04:27:25.405Z,2.03
2018-12-01T04:29:53.587Z,2.08
2018-12-01T04:32:21.747Z,2.05
2018-12-01T04:34:49.978Z,2.15
2018-12-01T04:37:18.140Z,2.16
2018-12-01T04:39:46.303Z,2.10
2018-12-01T04:42:14.467Z,2.16
2018-12-01T04:44:42.660Z,2.08
2018-12-01T04:47:10.813Z,2.16
2018-12-01T04:49:38.994Z,2.13
2018-12-01T04:52:07.142Z,2.09
2018-12-01T04:54:35.271Z,2.10
2018-12-01T04:57:03.507Z,2.19
2018-12-01T04:59:31.673Z,2.35
2018-12-01T05:01:59.837Z,2.23
2018-12-01T05:04:27.985Z,2.25
2018-12-01T05:06:56.145Z,2.24
2018-12-01T05:09:24.350Z,2.28
2018-12-01T05:11:52.513Z,2.27
2018-12-01T05:14:20.688Z,2.05
2018-12-01T05:16:48.916Z,2.24
2018-12-01T05:19:17.037Z,2.25
2018-12-01T05:21:45.217Z,2.32
2018-12-01T05:24:13.433Z,2.17
2018-12-01T05:26:41.621Z,2.15
2018-12-01T05:29:09.858Z,2.27
2018-12-01T05:31:37.973Z,2.24
2018-12-01T05:34:06.119Z,2.37
2018-12-01T05:36:34.283Z,2.36
2018-12-01T05:39:02.545Z,2.33
2018-12-01T05:41:30.807Z,2.34
2018-12-01T05:43:58.939Z,2.20
2018-12-01T05:46:27.098Z,2.26
2018-12-01T05:48:55.293Z,2.27
2018-12-01T05:51:23.423Z,2.31
2018-12-01T05:53:51.713Z,2.28
2018-12-01T05:56:20.056Z,2.23
2018-12-01T05:58:48.355Z,2.31
2018-12-01T06:01:16.701Z,2.31
2018-12-01T06:03:44.897Z,2.27
2018-12-01T06:06:13.075Z,2.31
2018-12-01T06:08:41.371Z,2.33
2018-12-01T06:11:09.657Z,2.29
2018-12-01T06:13:37.841Z,2.27
2018-12-01T06:16:06.416Z,2.35
2018-12-01T06:18:34.575Z,2.38
2018-12-01T06:21:02.857Z,2.30
2018-12-01T06:23:31.084Z,2.38
2018-12-01T06:25:59.303Z,2.41
2018-12-01T06:28:27.459Z,2.46
2018-12-01T06:30:55.821Z,2.48
2018-12-01T06:33:24.133Z,2.39
2018-12-01T06:35:52.287Z,2.35
2018-12-01T06:38:20.462Z,2.42
2018-12-01T06:40:48.605Z,2.41
2018-12-01T06:43:16.787Z,2.54
2018-12-01T06:45:45.037Z,2.49
2018-12-01T06:48:13.247Z,2.56
2018-12-01T06:50:41.421Z,2.53
2018-12-01T06:53:09.583Z,2.42
2018-12-01T06:55:37.727Z,2.50
2018-12-01T06:58:05.999Z,2.57
2018-12-01T07:00:34.230Z,2.49
2018-12-01T07:03:02.459Z,2.45
2018-12-01T07:05:30.695Z,2.43
2018-12-01T07:07:58.898Z,2.50
2018-12-01T07:10:27.042Z,2.55
2018-12-01T07:12:56.925Z,2.57
2018-12-01T07:15:26.536Z,2.53
2018-12-01T07:17:54.653Z,2.66
2018-12-01T07:20:22.807Z,2.68
2018-12-01T07:22:50.950Z,2.61
2018-12-01T07:25:19.111Z,2.65
2018-12-01T07:27:47.345Z,2.75
2018-12-01T07:30:15.672Z,2.70
2018-12-01T07:32:44.629Z,2.83
2018-12-01T07:35:12.837Z,2.71
2018-12-01T07:37:41.207Z,2.82
2018-12-01T07:40:14.852Z,2.93
2018-12-01T07:42:42.988Z,2.87
2018-12-01T07:45:12.408Z,2.88
2018-12-01T07:47:40.595Z,2.99
2018-12-01T07:50:10.420Z,2.98
2018-12-01T07:52:38.602Z,2.92
2018-12-01T07:55:07.189Z,3.03
2018-12-01T07:57:35.377Z,2.95
2018-12-01T08:00:03.791Z,3.02
2018-12-01T08:02:31.926Z,3.00
2018-12-01T08:05:00.079Z,3.03
2018-12-01T08:07:28.289Z,3.06
2018-12-01T08:09:56.487Z,3.09
2018-12-01T08:12:24.662Z,3.10
2018-12-01T08:14:52.830Z,3.18
2018-12-01T08:17:20.939Z,3.18
2018-12-01T08:19:49.058Z,3.24
2018-12-01T08:22:17.204Z,3.27
2018-12-01T08:24:45.330Z,3.32
2018-12-01T08:27:13.532Z,3.37
2018-12-01T08:29:41.664Z,3.41
2018-12-01T08:32:09.858Z,3.48
2018-12-01T08:34:37.969Z,3.55
2018-12-01T08:37:06.649Z,3.67
2018-12-01T08:39:34.904Z,3.72
2018-12-01T08:42:03.068Z,3.73
2018-12-01T08:44:31.207Z,3.76
2018-12-01T08:46:59.378Z,3.77
2018-12-01T08:49:27.544Z,3.86
2018-12-01T08:51:55.721Z,3.91
2018-12-01T08:54:23.881Z,3.98
2018-12-01T08:56:52.041Z,3.91
2018-12-01T08:59:20.212Z,3.92
2018-12-01T09:01:48.380Z,3.90
2018-12-01T09:04:16.582Z,3.85
2018-12-01T09:06:44.788Z,3.88
2018-12-01T09:09:12.995Z,3.90
2018-12-01T09:11:41.302Z,3.93
2018-12-01T09:14:09.480Z,4.04
2018-12-01T09:16:37.690Z,3.92
2018-12-01T09:19:06.311Z,3.87
2018-12-01T09:21:34.570Z,3.79
2018-12-01T09:24:02.682Z,3.79
2018-12-01T09:26:30.886Z,3.79
2018-12-01T09:28:59.061Z,3.79
2018-12-01T09:31:27.330Z,3.96
2018-12-01T09:33:55.840Z,3.96
2018-12-01T09:36:24.044Z,4.03
2018-12-01T09:38:52.224Z,4.07
2018-12-01T09:41:20.609Z,4.09
2018-12-01T09:43:48.778Z,4.25
2018-12-01T09:46:16.902Z,4.16
2018-12-01T09:48:45.026Z,4.25
2018-12-01T09:51:13.267Z,4.41
2018-12-01T09:53:41.541Z,4.59
2018-12-01T09:56:09.694Z,4.71
2018-12-01T09:58:37.884Z,4.75
2018-12-01T10:01:06.040Z,4.90
2018-12-01T10:03:34.190Z,4.99
2018-12-01T10:06:02.427Z,5.02
2018-12-01T10:08:30.558Z,5.17
2018-12-01T10:10:58.749Z,5.04
2018-12-01T10:13:26.926Z,4.98
2018-12-01T10:15:55.140Z,5.04
2018-12-01T10:18:23.294Z,5.00
2018-12-01T10:20:51.411Z,4.91
2018-12-01T10:23:19.643Z,4.99
2018-12-01T10:25:47.921Z,4.94
2018-12-01T10:28:16.090Z,4.93
2018-12-01T10:30:44.259Z,4.97
2018-12-01T10:33:12.370Z,4.88
2018-12-01T10:35:40.549Z,4.91
2018-12-01T10:38:13.458Z,4.89
2018-12-01T10:40:41.635Z,4.99
2018-12-01T10:43:09.877Z,5.11
2018-12-01T10:45:38.138Z,5.18
2018-12-01T10:48:07.770Z,5.26
2018-12-01T10:50:35.932Z,5.40
2018-12-01T10:53:04.086Z,5.51
2018-12-01T10:55:33.199Z,5.63
2018-12-01T10:58:18.340Z,5.64
2018-12-01T11:00:52.949Z,5.71
2018-12-01T11:03:27.063Z,5.76
2018-12-01T11:05:56.030Z,5.77
2018-12-01T11:08:24.200Z,5.84
2018-12-01T11:10:55.184Z,5.85
2018-12-01T11:13:20.645Z,5.93
2018-12-01T11:15:55.477Z,6.05
2018-12-01T11:18:23.633Z,6.20
2018-12-01T11:20:51.852Z,6.36
2018-12-01T11:23:20.053Z,6.39
2018-12-01T11:25:48.256Z,6.42
2018-12-01T11:28:16.487Z,6.57
2018-12-01T11:30:44.646Z,6.50
2018-12-01T11:33:12.913Z,6.47
2018-12-01T11:35:41.358Z,6.39
2018-12-01T11:38:09.915Z,6.36
2018-12-01T11:40:38.273Z,6.36
2018-12-01T11:43:07.947Z,6.49
2018-12-01T11:45:36.133Z,6.59
2018-12-01T11:48:04.380Z,6.68
2018-12-01T11:50:32.669Z,6.72
2018-12-01T11:53:00.855Z,6.87
2018-12-01T11:55:29.076Z,6.99
2018-12-01T11:57:57.343Z,6.98
2018-12-01T12:00:26.465Z,6.91
2018-12-01T12:02:55.016Z,6.89
2018-12-01T12:05:23.282Z,6.98
2018-12-01T12:08:03.063Z,6.97
2018-12-01T12:10:31.204Z,7.04
2018-12-01T12:12:59.438Z,7.15
2018-12-01T12:15:27.805Z,7.05
2018-12-01T12:17:58.485Z,7.02
2018-12-01T12:20:26.733Z,7.03
2018-12-01T12:22:55.097Z,7.02
2018-12-01T12:25:23.407Z,7.08
2018-12-01T12:27:51.664Z,7.14
2018-12-01T12:30:23.415Z,7.08
2018-12-01T12:32:48.879Z,7.15
2018-12-01T12:35:17.797Z,7.24
2018-12-01T12:37:48.939Z,7.19
2018-12-01T12:40:23.124Z,7.22
2018-12-01T12:42:52.097Z,7.26
2018-12-01T12:45:20.265Z,7.20
2018-12-01T12:47:48.437Z,7.16
2018-12-01T12:50:17.503Z,7.06
2018-12-01T12:52:47.839Z,7.20
2018-12-01T12:55:21.007Z,7.20
2018-12-01T12:57:49.223Z,7.30
2018-12-01T13:00:21.543Z,7.26
2018-12-01T13:02:58.059Z,7.37
2018-12-01T13:05:29.677Z,7.32
2018-12-01T13:07:58.017Z,7.26
2018-12-01T13:10:26.693Z,7.29
2018-12-01T13:12:54.857Z,7.30
2018-12-01T13:15:23.146Z,7.29
2018-12-01T13:17:51.431Z,7.33
2018-12-01T13:20:20.622Z,7.40
2018-12-01T13:22:50.160Z,7.41
2018-12-01T13:25:18.423Z,7.29
2018-12-01T13:27:48.377Z,7.28
2018-12-01T13:30:18.051Z,7.37
2018-12-01T13:32:46.274Z,7.25
2018-12-01T13:35:14.463Z,7.20
2018-12-01T13:37:42.682Z,7.16
2018-12-01T13:40:13.716Z,7.26
2018-12-01T13:42:42.410Z,7.30
2018-12-01T13:45:17.670Z,7.21
2018-12-01T13:47:46.936Z,7.37
2018-12-01T13:50:16.827Z,7.25
2018-12-01T13:52:48.378Z,7.20
2018-12-01T13:55:16.610Z,7.17
2018-12-01T13:57:44.827Z,7.18
2018-12-01T14:00:15.229Z,7.24
2018-12-01T14:02:43.500Z,7.25
2018-12-01T14:05:12.202Z,7.12
2018-12-01T14:07:40.420Z,7.08
2018-12-01T14:10:14.550Z,6.94
2018-12-01T14:12:43.162Z,6.89
2018-12-01T14:15:12.870Z,6.78
2018-12-01T14:17:41.242Z,6.77
2018-12-01T14:20:10.753Z,6.70
2018-12-01T14:22:39.078Z,6.62
2018-12-01T14:25:08.798Z,6.56
2018-12-01T14:27:37.311Z,6.62
2018-12-01T14:30:09.972Z,6.70
2018-12-01T14:32:38.202Z,6.64
2018-12-01T14:35:10.322Z,6.62
2018-12-01T14:37:38.538Z,6.47
2018-12-01T14:40:09.912Z,6.53
2018-12-01T14:42:38.158Z,6.41
2018-12-01T14:45:09.662Z,6.50
2018-12-01T14:47:37.908Z,6.32
2018-12-01T14:50:08.450Z,6.27
2018-12-01T14:52:36.619Z,6.17
2018-12-01T14:55:06.271Z,6.26
2018-12-01T14:57:34.456Z,6.17
2018-12-01T15:00:02.745Z,6.18
2018-12-01T15:02:31.091Z,6.17
2018-12-01T15:04:59.412Z,6.14
2018-12-01T15:07:27.660Z,6.08
2018-12-01T15:09:55.830Z,6.06
2018-12-01T15:12:24.032Z,6.02
2018-12-01T15:14:52.241Z,5.99
2018-12-01T15:17:20.502Z,5.84
2018-12-01T15:19:48.788Z,5.89
2018-12-01T15:22:17.035Z,5.85
2018-12-01T15:24:45.231Z,5.84
2018-12-01T15:27:13.445Z,5.70
2018-12-01T15:29:41.639Z,5.58
2018-12-01T15:32:09.815Z,5.61
2018-12-01T15:34:37.965Z,5.51
2018-12-01T15:37:06.291Z,5.45
2018-12-01T15:39:34.650Z,5.58
2018-12-01T15:42:02.841Z,5.45
2018-12-01T15:44:31.609Z,5.61
2018-12-01T15:47:00.055Z,5.61
2018-12-01T15:49:28.286Z,5.54
2018-12-01T15:51:56.541Z,5.53
2018-12-01T15:54:24.743Z,5.46
2018-12-01T15:56:52.938Z,5.52
2018-12-01T15:59:21.085Z,5.56
2018-12-01T16:01:49.323Z,5.55
2018-12-01T16:04:17.675Z,5.48
2018-12-01T16:06:45.882Z,5.50
2018-12-01T16:09:14.055Z,5.53
2018-12-01T16:11:42.223Z,5.48
2018-12-01T16:14:10.891Z,5.41
2018-12-01T16:16:39.060Z,5.48
2018-12-01T16:19:07.279Z,5.45
2018-12-01T16:21:35.435Z,5.34
2018-12-01T16:24:03.641Z,5.24
2018-12-01T16:26:32.018Z,5.19
2018-12-01T16:29:00.199Z,5.14
2018-12-01T16:31:28.413Z,5.33
2018-12-01T16:33:56.715Z,5.38
2018-12-01T16:36:25.031Z,5.38
2018-12-01T16:38:53.433Z,5.36
2018-12-01T16:41:25.565Z,5.37
2018-12-01T16:43:53.783Z,5.30
2018-12-01T16:46:22.059Z,5.32
2018-12-01T16:48:50.280Z,5.37
2018-12-01T16:51:18.489Z,5.43
2018-12-01T16:53:46.746Z,5.39
2018-12-01T16:56:14.951Z,5.35
2018-12-01T16:58:43.224Z,5.34
2018-12-01T17:01:11.413Z,5.44
2018-12-01T17:03:39.661Z,5.24
2018-12-01T17:06:11.411Z,5.11
2018-12-01T17:08:39.527Z,5.14
2018-12-01T17:11:08.673Z,5.22
2018-12-01T17:13:37.031Z,5.12
2018-12-01T17:16:05.397Z,5.27
2018-12-01T17:18:33.587Z,5.16
2018-12-01T17:21:01.829Z,5.23
2018-12-01T17:23:30.100Z,5.22
2018-12-01T17:25:58.279Z,5.25
2018-12-01T17:28:26.496Z,5.28
2018-12-01T17:30:54.675Z,5.23
2018-12-01T17:33:22.818Z,5.14
2018-12-01T17:35:51.009Z,5.11
2018-12-01T17:38:20.403Z,5.07
2018-12-01T17:40:55.741Z,5.05
2018-12-01T17:43:28.211Z,4.96
2018-12-01T17:45:56.513Z,4.87
2018-12-01T17:48:24.726Z,4.76
2018-12-01T17:50:52.915Z,4.87
2018-12-01T17:53:21.153Z,4.81
2018-12-01T17:55:49.576Z,4.71
2018-12-01T17:58:17.741Z,4.83
2018-12-01T18:00:45.893Z,5.00
2018-12-01T18:03:14.183Z,4.90
2018-12-01T18:05:45.185Z,4.81
2018-12-01T18:08:16.174Z,4.81
2018-12-01T18:10:44.911Z,4.78
2018-12-01T18:13:13.084Z,4.67
2018-12-01T18:15:41.524Z,4.72
2018-12-01T18:18:09.686Z,4.67
2018-12-01T18:20:37.933Z,4.60
2018-12-01T18:23:07.565Z,4.69
2018-12-01T18:25:39.458Z,4.82
2018-12-01T18:28:08.657Z,4.72
2018-12-01T18:30:38.285Z,4.62
2018-12-01T18:33:12.097Z,4.66
2018-12-01T18:35:40.669Z,4.59
2018-12-01T18:38:09.905Z,4.60
2018-12-01T18:40:38.201Z,4.59
2018-12-01T18:43:07.271Z,4.55
2018-12-01T18:45:35.484Z,4.49
2018-12-01T18:48:03.659Z,4.57
2018-12-01T18:50:31.989Z,4.55
2018-12-01T18:53:01.660Z,4.54
2018-12-01T18:55:31.415Z,4.58
2018-12-01T18:58:07.304Z,4.68
2018-12-01T19:00:40.765Z,4.58
2018-12-01T19:03:08.996Z,4.61
2018-12-01T19:05:37.228Z,4.59
2018-12-01T19:08:05.498Z,4.59
2018-12-01T19:10:33.768Z,4.52
2018-12-01T19:13:01.955Z,4.52
2018-12-01T19:15:30.167Z,4.52
2018-12-01T19:17:58.355Z,4.50
2018-12-01T19:20:26.640Z,4.44
2018-12-01T19:22:54.810Z,4.49
2018-12-01T19:25:23.673Z,4.46
2018-12-01T19:27:53.021Z,4.51
2018-12-01T19:30:21.969Z,4.50
2018-12-01T19:32:57.353Z,4.63
2018-12-01T19:35:25.553Z,4.62
2018-12-01T19:37:54.610Z,4.53
2018-12-01T19:40:28.608Z,4.63
2018-12-01T19:42:53.700Z,4.49
2018-12-01T19:45:21.935Z,4.36
2018-12-01T19:47:50.259Z,4.42
2018-12-01T19:50:21.819Z,4.40
2018-12-01T19:52:49.988Z,4.38
2018-12-01T19:55:19.294Z,4.45
2018-12-01T19:57:47.571Z,4.41
2018-12-01T20:00:17.138Z,4.46
2018-12-01T20:02:45.448Z,4.41
2018-12-01T20:05:15.017Z,4.38
2018-12-01T20:07:43.410Z,4.34
2018-12-01T20:10:21.884Z,4.33
2018-12-01T20:12:53.732Z,4.35
2018-12-01T20:15:58.343Z,4.34
2018-12-01T20:18:27.743Z,4.34
2018-12-01T20:20:56.068Z,4.32
2018-12-01T20:25:56.242Z,4.23
2018-12-01T20:28:24.472Z,4.28
2018-12-01T20:30:53.193Z,4.28
2018-12-01T20:33:21.431Z,4.37
2018-12-01T20:35:54.571Z,4.28
2018-12-01T20:38:43.532Z,4.23
2018-12-01T20:41:11.773Z,4.18
2018-12-01T20:43:40.003Z,4.14
2018-12-01T20:46:08.223Z,4.07
2018-12-01T20:48:36.480Z,4.02
2018-12-01T20:51:05.203Z,4.05
2018-12-01T20:53:33.430Z,4.02
2018-12-01T20:56:01.881Z,3.95
2018-12-01T20:58:32.248Z,3.97
2018-12-01T21:01:00.425Z,4.03
2018-12-01T21:03:28.633Z,3.90
2018-12-01T21:05:56.896Z,3.87
2018-12-01T21:08:27.840Z,3.89
2018-12-01T21:10:58.338Z,3.85
2018-12-01T21:13:26.559Z,3.87
2018-12-01T21:15:54.818Z,4.03
2018-12-01T21:18:23.134Z,3.89
2018-12-01T21:20:51.400Z,3.88
2018-12-01T21:23:19.781Z,3.95
2018-12-01T21:25:48.015Z,4.08
2018-12-01T21:28:16.243Z,4.05
2018-12-01T21:30:45.591Z,3.96
2018-12-01T21:33:16.306Z,3.84
2018-12-01T21:35:44.551Z,3.85
2018-12-01T21:38:14.815Z,4.00
2018-12-01T21:40:43.583Z,3.88
2018-12-01T21:43:12.473Z,3.78
2018-12-01T21:45:40.657Z,3.87
2018-12-01T21:48:10.639Z,3.77
2018-12-01T21:50:39.733Z,3.67
2018-12-01T21:53:10.298Z,3.72
2018-12-01T21:55:38.560Z,3.71
2018-12-01T21:58:07.342Z,3.68
2018-12-01T22:00:35.572Z,3.62
2018-12-01T22:03:06.573Z,3.51
2018-12-01T22:05:38.080Z,3.51
2018-12-01T22:08:07.725Z,3.55
2018-12-01T22:10:35.898Z,3.51
2018-12-01T22:13:04.114Z,3.57
2018-12-01T22:15:32.285Z,3.48
2018-12-01T22:18:00.455Z,3.45
2018-12-01T22:20:28.622Z,3.44
2018-12-01T22:22:56.860Z,3.50
2018-12-01T22:25:24.987Z,3.50
2018-12-01T22:27:53.186Z,3.53
2018-12-01T22:30:21.823Z,3.55
2018-12-01T22:32:55.400Z,3.66
2018-12-01T22:35:24.710Z,3.61
2018-12-01T22:37:53.606Z,3.59
2018-12-01T22:40:23.127Z,3.46
2018-12-01T22:42:53.904Z,3.52
2018-12-01T22:45:22.047Z,3.57
2018-12-01T22:47:50.282Z,3.54
2018-12-01T22:50:19.603Z,3.62
2018-12-01T22:52:48.036Z,3.49
2018-12-01T22:55:17.637Z,3.47
2018-12-01T22:57:51.392Z,3.61
2018-12-01T23:00:35.709Z,3.64
2018-12-01T23:03:04.214Z,3.57
2018-12-01T23:05:32.386Z,3.59
2018-12-01T23:08:00.547Z,3.71
2018-12-01T23:10:28.743Z,3.74
2018-12-01T23:12:56.964Z,3.73
2018-12-01T23:15:25.228Z,3.75
2018-12-01T23:17:53.482Z,3.77
2018-12-01T23:20:23.017Z,3.93
2018-12-01T23:22:51.666Z,3.82
2018-12-01T23:25:19.875Z,3.98
2018-12-01T23:27:48.029Z,3.98
2018-12-01T23:30:25.134Z,3.90
2018-12-01T23:32:59.477Z,3.87
2018-12-01T23:35:27.759Z,4.03
2018-12-01T23:37:55.938Z,4.01
2018-12-01T23:40:24.083Z,3.95
2018-12-01T23:42:52.374Z,3.91
2018-12-01T23:45:21.028Z,3.92
2018-12-01T23:47:49.504Z,4.00
2018-12-01T23:50:18.813Z,3.94
2018-12-01T23:52:48.218Z,3.85
2018-12-01T23:55:16.449Z,3.86
2018-12-01T23:57:44.617Z,3.91
